Latest Coastal Weather Observations for Hogan Island

IDV60701

Issued at 9:35 pm EDT Friday 24 October 2014 (issued every 10 minutes, with the page automatically refreshed every 10 minutes)

About coastal observations | Map of coastal stations | Coastal observations for VIC | Marine services | Other Formats
Station Details ID: 200838 Name: HOGAN ISLAND Lat: -39.22 Lon: 146.98 Height: 116.0 m
Data from the previous 72 hours. | See also: Recent months at Hogan Island
Date/Time
EDT
Temp

°C
Wind Pressure Rain
since 9am
mm
Weather Cloud Vis
km
Sea
Height
m
Swell
Dir
 
Speed
knots
Gust
knots
hPa Trend Height
m
Period
s
Dir
24/09:30pm 13.9 W 24 29 1012.4 - 0.2 - - - - - - -
24/09:00pm 14.7 W 28 35 1012.3 - 0.2 - - - - - - -
24/08:57pm 14.8 W 27 35 1012.2 - 0.2 - - - - - - -
24/08:30pm 14.8 W 21 25 1011.8 - 0.2 - - - - - - -
24/08:00pm 15.0 WNW 15 17 1011.4 - 0.2 - - - - - - -
24/07:30pm 15.7 WNW 18 21 1010.7 - 0.2 - - - - - - -
24/07:00pm 16.5 WNW 17 21 1010.5 - 0.2 - - - - - - -
24/06:30pm 16.6 WNW 17 20 1010.2 - 0.2 - - - - - - -
24/06:00pm 16.7 W 14 19 1010.0 - 0.2 - - - - - - -
24/05:48pm 18.0 W 15 20 1009.9 - 0.2 - - - - - - -
24/05:30pm 18.7 WNW 7 10 1009.9 - 0.2 - - - - - - -
24/05:00pm 18.8 N 4 6 1009.7 - 0.2 - - - - - - -
24/04:30pm 20.7 N 4 6 1009.9 - 0.2 - - - - - - -
24/04:00pm 18.9 N 4 6 1010.0 - 0.0 - - - - - - -
24/03:30pm 18.4 NE 5 6 1010.0 - 0.0 - - - - - - -
24/03:00pm 16.9 NNE 9 11 1010.0 - 0.0 - - - - - - -
24/02:30pm 17.1 NNE 10 11 1010.2 - 0.0 - - - - - - -
24/02:00pm 17.3 NE 10 12 1010.6 - 0.0 - - - - - - -
24/01:30pm 17.2 NE 14 16 1010.7 - 0.0 - - - - - - -
24/01:00pm 16.4 ENE 13 16 1011.0 - 0.0 - - - - - - -
24/12:30pm 16.3 ENE 12 14 1011.6 - 0.0 - - - - - - -
24/12:00pm 16.1 ENE 16 19 1011.8 - 0.0 - - - - - - -
24/11:30am 16.0 ENE 19 21 1012.1 - 0.0 - - - - - - -
24/11:00am 15.6 ENE 19 23 1012.5 - 0.0 - - - - - - -
24/10:30am 15.7 E 24 29 1012.6 - 0.0 - - - - - - -
24/10:00am 15.3 E 25 31 1012.6 - 0.0 - - - - - - -
24/09:30am 15.3 E 25 32 1013.2 - 0.0 - - - - - - -
24/09:00am 15.1 E 26 32 1013.6 - 0.0 - - - - - - -
24/08:30am 14.9 E 25 31 1013.9 - 0.0 - - - - - - -
24/08:00am 14.8 E 26 33 1014.4 - 0.0 - - - - - - -
24/07:30am 14.7 E 25 31 1014.7 - 0.0 - - - - - - -
24/07:00am 14.7 E 25 31 1014.9 - 0.0 - - - - - - -
24/06:30am 14.6 E 27 32 1015.0 - 0.0 - - - - - - -
24/06:00am 14.4 E 27 31 1014.9 - 0.0 - - - - - - -
24/05:30am 14.3 E 28 32 1015.0 - 0.0 - - - - - - -
24/05:00am 14.2 E 29 36 1015.0 - 0.0 - - - - - - -
24/04:30am 14.1 E 29 34 1015.1 - 0.0 - - - - - - -
24/04:00am 14.0 E 30 34 1015.5 - 0.0 - - - - - - -
24/03:30am 13.9 E 29 36 1016.1 - 0.0 - - - - - - -
24/03:00am 13.8 E 31 35 1016.6 - 0.0 - - - - - - -
24/02:30am 13.6 E 31 35 1016.9 - 0.0 - - - - - - -
24/02:00am 13.4 E 31 35 1017.5 - 0.0 - - - - - - -
24/01:30am 13.3 E 34 39 1018.0 - 0.0 - - - - - - -
24/01:00am 13.3 E 33 39 1018.5 - 0.0 - - - - - - -
24/12:30am 13.3 E 34 39 1018.8 - 0.0 - - - - - - -
24/12:00am 13.3 E 33 37 1019.1 - 0.0 - - - - - - -
 
Date/Time
EDT
Temp

°C
Wind Pressure Rain
since 9am
mm
Weather Cloud Vis
km
Sea
Height
m
Swell
Dir
 
Speed
knots
Gust
knots
hPa Trend Height
m
Period
s
Dir
23/11:30pm 13.2 E 33 39 1019.4 - 0.0 - - - - - - -
23/11:00pm 13.3 E 33 37 1020.0 - 0.0 - - - - - - -
23/10:30pm 13.2 E 32 37 1020.2 - 0.0 - - - - - - -
23/10:00pm 13.1 E 33 37 1020.5 - 0.0 - - - - - - -
23/09:30pm 13.1 E 33 39 1020.8 - 0.0 - - - - - - -
23/09:00pm 13.1 E 33 38 1020.8 - 0.0 - - - - - - -
23/08:30pm 13.0 E 31 35 1020.8 - 0.0 - - - - - - -
23/08:00pm 12.9 E 31 35 1020.7 - 0.0 - - - - - - -
23/07:30pm 12.9 E 32 38 1020.5 - 0.0 - - - - - - -
23/07:00pm 13.0 E 32 38 1020.3 - 0.0 - - - - - - -
23/06:30pm 13.0 E 31 37 1020.4 - 0.0 - - - - - - -
23/06:00pm 13.1 E 33 37 1020.3 - 0.0 - - - - - - -
23/05:30pm 13.5 E 31 35 1020.3 - 0.0 - - - - - - -
23/05:00pm 13.8 E 32 36 1020.2 - 0.0 - - - - - - -
23/04:30pm 13.9 E 31 36 1020.4 - 0.0 - - - - - - -
23/04:00pm 14.3 E 33 38 1020.3 - 0.0 - - - - - - -
23/03:30pm 14.7 E 31 35 1020.7 - 0.0 - - - - - - -
23/03:00pm 14.8 E 31 35 1020.9 - 0.0 - - - - - - -
23/02:30pm 15.9 E 28 32 1021.0 - 0.0 - - - - - - -
23/02:00pm 15.3 E 28 34 1021.2 - 0.0 - - - - - - -
23/01:30pm 15.8 E 28 32 1021.2 - 0.0 - - - - - - -
23/01:00pm 15.5 E 27 35 1021.2 - 0.0 - - - - - - -
23/12:30pm 15.7 E 30 37 1021.2 - 0.0 - - - - - - -
23/12:24pm 15.2 E 27 37 1021.2 - 0.0 - - - - - - -
23/12:00pm 15.6 ESE 28 33 1021.2 - 0.0 - - - - - - -
23/11:30am 15.4 ESE 30 35 1021.2 - 0.0 - - - - - - -
23/11:00am 15.4 ESE 31 35 1021.1 - 0.0 - - - - - - -
23/10:30am 15.6 ESE 25 31 1021.2 - 0.0 - - - - - - -
23/10:00am 16.2 ESE 24 31 1021.1 - 0.0 - - - - - - -
23/09:30am 15.0 ESE 26 33 1020.7 - 0.0 - - - - - - -
23/09:00am 14.4 ESE 22 26 1020.8 - 0.0 - - - - - - -
23/08:30am 14.1 E 23 27 1020.7 - 0.0 - - - - - - -
23/08:00am 13.8 E 20 24 1020.4 - 0.0 - - - - - - -
23/07:30am 14.1 E 21 25 1019.6 - 0.0 - - - - - - -
23/07:00am 13.5 E 20 25 1019.0 - 0.0 - - - - - - -
23/06:30am 13.2 E 21 25 1018.6 - 0.0 - - - - - - -
23/06:00am 13.3 E 20 23 1018.0 - 0.0 - - - - - - -
23/05:30am 13.4 E 19 22 1017.2 - 0.0 - - - - - - -
23/05:00am 13.5 ESE 16 18 1016.8 - 0.0 - - - - - - -
23/04:30am 13.6 SSE 16 18 1016.5 - 0.0 - - - - - - -
23/04:00am 13.7 S 18 21 1016.0 - 0.0 - - - - - - -
23/03:30am 13.8 S 18 20 1016.1 - 0.0 - - - - - - -
23/03:00am 14.0 SSW 15 17 1016.3 - 0.0 - - - - - - -
23/02:30am 14.0 SSW 14 18 1016.6 - 0.0 - - - - - - -
23/02:00am 14.5 SW 16 18 1016.5 - 0.0 - - - - - - -
23/01:30am 16.1 W 19 23 1016.6 - 0.0 - - - - - - -
23/01:00am 17.8 W 14 18 1016.2 - 0.0 - - - - - - -
23/12:30am 18.7 N 15 17 1015.4 - 0.0 - - - - - - -
23/12:00am 16.1 NNW 11 16 1015.8 - 0.0 - - - - - - -
 
Date/Time
EDT
Temp

°C
Wind Pressure Rain
since 9am
mm
Weather Cloud Vis
km
Sea
Height
m
Swell
Dir
 
Speed
knots
Gust
knots
hPa Trend Height
m
Period
s
Dir
22/11:39pm 17.6 NW 11 21 1016.7 - 0.0 - - - - - - -
22/11:30pm 19.4 N 20 25 1016.1 - 0.0 - - - - - - -
22/11:00pm 17.5 N 17 22 1016.2 - 0.0 - - - - - - -
22/10:30pm 15.9 NNE 14 18 1015.8 - 0.0 - - - - - - -
22/10:00pm 16.5 N 16 20 1016.2 - 0.0 - - - - - - -
22/09:30pm 17.1 N 13 17 1017.3 - 0.0 - - - - - - -
22/09:00pm 16.6 NNE 10 12 1016.6 - 0.0 - - - - - - -
22/08:30pm 16.2 ENE 10 12 1015.8 - 0.0 - - - - - - -
22/08:00pm 15.6 NNW 13 21 1016.7 - 0.0 - - - - - - -
22/07:30pm 16.7 NNE 11 13 1015.6 - 0.0 - - - - - - -
22/07:00pm 17.8 NNE 10 12 1016.1 - 0.0 - - - - - - -
22/06:30pm 17.0 NNE 11 13 1015.8 - 0.0 - - - - - - -
22/06:00pm 18.2 NE 11 15 1015.6 - 0.0 - - - - - - -
22/05:30pm 16.7 NE 9 11 1015.6 - 0.0 - - - - - - -
22/05:00pm 17.7 NE 9 11 1015.8 - 0.0 - - - - - - -
22/04:30pm 17.3 NE 9 11 1016.1 - 0.0 - - - - - - -
22/04:00pm 18.2 NE 9 11 1016.7 - 0.0 - - - - - - -
22/03:30pm 18.2 NE 9 11 1016.7 - 0.0 - - - - - - -
22/03:00pm 18.3 NE 7 8 1017.1 - 0.0 - - - - - - -
22/02:30pm 18.2 NE 8 10 1017.5 - 0.0 - - - - - - -
22/02:00pm 18.5 NE 8 10 1017.6 - 0.0 - - - - - - -
22/01:30pm 18.5 NE 9 11 1018.0 - 0.0 - - - - - - -
22/01:00pm 18.5 NE 10 13 1018.2 - 0.0 - - - - - - -
22/12:30pm 18.6 NNE 12 16 1018.5 - 0.0 - - - - - - -
22/12:00pm 18.5 NNE 12 14 1019.2 - 0.0 - - - - - - -
22/11:30am 17.8 NE 11 15 1019.5 - 0.0 - - - - - - -
22/11:00am 17.7 NNE 12 19 1019.9 - 0.0 - - - - - - -
22/10:30am 18.4 N 10 14 1020.2 - 0.0 - - - - - - -
22/10:00am 16.9 NNE 9 12 1020.2 - 0.0 - - - - - - -
22/09:30am 16.6 NE 8 11 1020.1 - 0.0 - - - - - - -
22/09:00am 15.2 NNE 10 13 1020.1 - 0.0 - - - - - - -
22/08:30am 14.5 NE 11 13 1020.1 - 0.0 - - - - - - -
22/08:00am 13.5 NE 12 14 1020.3 - 0.0 - - - - - - -
22/07:30am 13.5 NE 12 14 1020.3 - 0.0 - - - - - - -
22/07:00am 13.1 NE 12 14 1020.4 - 0.0 - - - - - - -
22/06:30am 12.5 ENE 14 15 1020.3 - 0.0 - - - - - - -
22/06:00am 12.4 ENE 14 15 1020.3 - 0.0 - - - - - - -
22/05:30am 12.4 ENE 14 15 1020.4 - 0.0 - - - - - - -
22/05:00am 12.4 ENE 15 16 1020.5 - 0.0 - - - - - - -
22/04:30am 12.2 ENE 15 16 1020.8 - 0.0 - - - - - - -
22/04:00am 12.3 ENE 15 16 1021.2 - 0.0 - - - - - - -
22/03:30am 12.4 ENE 16 17 1021.6 - 0.0 - - - - - - -
22/03:00am 12.5 ENE 17 19 1022.0 - 0.0 - - - - - - -
22/02:30am 12.6 ENE 18 21 1022.5 - 0.0 - - - - - - -
22/02:00am 12.6 ENE 19 22 1022.9 - 0.0 - - - - - - -
22/01:30am 12.6 ENE 21 23 1023.4 - 0.0 - - - - - - -
22/01:00am 12.7 ENE 21 25 1024.0 - 0.0 - - - - - - -
22/12:30am 12.6 ENE 21 25 1024.6 - 0.0 - - - - - - -
22/12:00am 12.8 ENE 22 26 1025.0 - 0.0 - - - - - - -
 
Date/Time
EDT
Temp

°C
Wind Pressure Rain
since 9am
mm
Weather Cloud Vis
km
Sea
Height
m
Swell
Dir
 
Speed
knots
Gust
knots
hPa Trend Height
m
Period
s
Dir
21/11:30pm 12.7 ENE 24 27 1025.1 - 0.0 - - - - - - -
21/11:00pm 12.7 ENE 24 27 1025.6 - 0.0 - - - - - - -
21/10:30pm 12.8 ENE 25 29 1025.7 - 0.0 - - - - - - -
21/10:00pm 12.9 ENE 28 32 1025.8 - 0.0 - - - - - - -

Other Formats:

Comma delimited format used in spreadsheet applications
http://www.bom.gov.au/fwo/IDV60701/IDV60701.94949.axf

JavaScript Object Notation format (JSON) in row-major order
http://www.bom.gov.au/fwo/IDV60701/IDV60701.94949.json